METAR Data
IDs: Format: Raw Decoded Include TAF

Data at: 0754 UTC 30 Oct 2020

EPSY 300730Z 25007KT 210V280 9999 BKN013 08/06 Q1015